Time;durP1;ratioP1;P1;durP2;ratioP2;P2;SDS_P1;SDS_P2;PMS_P1;PMS_P2;Temp;Humidity;BMP_temperature;BMP_pressure;BME280_temperature;BME280_humidity;BME280_pressure;Samples;Min_cycle;Max_cycle;Signal;HPM_P1;HPM_P2
2022/09/20 00:00:32;;;;;;;6.30;1.27;;;;;;;;;;5042122;28;20128;-66
2022/09/20 00:02:59;;;;;;;5.53;1.25;;;;;;;;;;5049145;28;20113;-67
2022/09/20 00:05:25;;;;;;;6.60;1.48;;;;;;;;;;5051095;28;20049;-67
2022/09/20 00:07:51;;;;;;;6.25;1.55;;;;;;;;;;5049513;28;20124;-66
2022/09/20 00:10:17;;;;;;;7.40;1.50;;;;;;;;;;5049349;28;20032;-66
2022/09/20 00:12:43;;;;;;;5.70;1.35;;;;;;;;;;5044598;28;20505;-66
2022/09/20 00:15:09;;;;;;;7.60;1.45;;;;;;;;;;5049398;28;20560;-67
2022/09/20 00:17:35;;;;;;;7.35;1.30;;;;;;;;;;5048620;28;20573;-66
2022/09/20 00:20:02;;;;;;;11.48;1.52;;;;;;;;;;5057851;22;20116;-64
2022/09/20 00:22:28;;;;;;;6.60;1.60;;;;;;;;;;5048150;28;20041;-64
2022/09/20 00:24:54;;;;;;;7.50;1.30;;;;;;;;;;5054098;28;20047;-64
2022/09/20 00:27:20;;;;;;;7.93;1.30;;;;;;;;;;5051981;28;20049;-64
2022/09/20 00:29:46;;;;;;;6.07;1.80;;;;;;;;;;5050177;28;20105;-64
2022/09/20 00:32:12;;;;;;;7.40;1.77;;;;;;;;;;5052985;28;20379;-63
2022/09/20 00:37:22;;;;;;;4.40;1.20;;;;;;;;;;5052752;28;20045;-64
2022/09/20 00:39:48;;;;;;;11.00;1.35;;;;;;;;;;5053540;28;20033;-63
2022/09/20 00:42:14;;;;;;;10.70;1.50;;;;;;;;;;5053844;28;20040;-64
2022/09/20 00:44:43;;;;;;;7.90;1.42;;;;;;;;;;5053390;28;20506;-64
2022/09/20 00:47:13;;;;;;;6.25;1.38;;;;;;;;;;5051688;28;20045;-63
2022/09/20 00:49:39;;;;;;;7.10;1.67;;;;;;;;;;5051522;28;20065;-63
2022/09/20 00:52:05;;;;;;;8.20;1.52;;;;;;;;;;5053011;28;20406;-64
2022/09/20 00:54:31;;;;;;;8.02;1.67;;;;;;;;;;5054065;28;20047;-63
2022/09/20 00:56:58;;;;;;;6.05;1.40;;;;;;;;;;5050917;28;20171;-64
2022/09/20 00:59:30;;;;;;;7.57;1.65;;;;;;;;;;5052977;28;20030;-64
2022/09/20 01:02:16;;;;;;;3.45;0.90;;;;;;;;;;5052919;28;20037;-64
2022/09/20 01:04:43;;;;;;;9.30;1.45;;;;;;;;;;5046144;28;20041;-64
2022/09/20 01:07:11;;;;;;;6.95;1.25;;;;;;;;;;5051602;28;20410;-64
2022/09/20 01:09:37;;;;;;;7.30;1.30;;;;;;;;;;5051737;28;20099;-64
2022/09/20 01:12:06;;;;;;;8.15;1.23;;;;;;;;;;5053285;28;20048;-64
2022/09/20 01:14:33;;;;;;;3.53;1.05;;;;;;;;;;5050334;28;20055;-63
2022/09/20 01:17:01;;;;;;;6.75;1.60;;;;;;;;;;5051975;28;20045;-63
2022/09/20 01:19:48;;;;;;;3.80;1.15;;;;;;;;;;5053462;28;20060;-63
2022/09/20 01:22:23;;;;;;;6.20;1.30;;;;;;;;;;5051422;28;20083;-63
2022/09/20 01:24:55;;;;;;;10.10;1.40;;;;;;;;;;5052265;28;20477;-63
2022/09/20 01:27:24;;;;;;;5.47;1.30;;;;;;;;;;5051501;28;20425;-63
2022/09/20 01:30:03;;;;;;;5.63;1.00;;;;;;;;;;5047379;28;21022;-63
2022/09/20 01:32:35;;;;;;;6.70;1.20;;;;;;;;;;5052430;28;20045;-63
2022/09/20 01:35:01;;;;;;;7.43;1.20;;;;;;;;;;5052311;28;20048;-63
2022/09/20 01:37:46;;;;;;;11.70;1.60;;;;;;;;;;5046752;28;20036;-63
2022/09/20 01:40:28;;;;;;;9.38;1.45;;;;;;;;;;5051964;28;20087;-63
2022/09/20 01:43:01;;;;;;;5.70;1.45;;;;;;;;;;5052963;28;20091;-64
2022/09/20 01:45:28;;;;;;;8.70;1.23;;;;;;;;;;5052139;28;20032;-64
2022/09/20 01:48:00;;;;;;;9.32;1.50;;;;;;;;;;5051485;28;20473;-64
2022/09/20 01:50:25;;;;;;;6.55;1.40;;;;;;;;;;5051580;28;20052;-63
2022/09/20 01:53:10;;;;;;;4.35;1.02;;;;;;;;;;5049646;28;20123;-63
2022/09/20 01:55:36;;;;;;;8.35;1.08;;;;;;;;;;5044030;28;20040;-64
2022/09/20 01:58:27;;;;;;;6.40;1.45;;;;;;;;;;5044479;28;20045;-63
2022/09/20 02:01:09;;;;;;;7.10;1.60;;;;;;;;;;5037176;28;20491;-64
2022/09/20 02:03:35;;;;;;;;;;;;;;;;;;5051531;28;20037;-64
2022/09/20 02:06:23;;;;;;;6.85;1.35;;;;;;;;;;5049266;28;20373;-64
2022/09/20 02:09:03;;;;;;;4.95;1.20;;;;;;;;;;5047182;28;20555;-63
2022/09/20 02:11:39;;;;;;;6.10;1.23;;;;;;;;;;5050882;28;20056;-63
2022/09/20 02:14:14;;;;;;;4.93;1.10;;;;;;;;;;5049758;28;20052;-64
2022/09/20 02:16:49;;;;;;;6.32;1.33;;;;;;;;;;5044354;28;20426;-63
2022/09/20 02:19:34;;;;;;;6.00;1.17;;;;;;;;;;5051483;28;20041;-64
2022/09/20 02:22:29;;;;;;;6.65;0.90;;;;;;;;;;5050818;28;20510;-64
2022/09/20 02:25:02;;;;;;;5.95;1.35;;;;;;;;;;5034545;28;20091;-64
2022/09/20 02:27:40;;;;;;;7.95;1.50;;;;;;;;;;5046447;28;20037;-63
2022/09/20 02:30:15;;;;;;;5.60;1.30;;;;;;;;;;5051280;28;20087;-64
2022/09/20 02:32:56;;;;;;;4.13;1.30;;;;;;;;;;5045694;28;20183;-64
2022/09/20 02:35:30;;;;;;;4.78;1.23;;;;;;;;;;5049308;28;20052;-64
2022/09/20 02:38:02;;;;;;;10.70;1.27;;;;;;;;;;5049905;28;20120;-64
2022/09/20 02:40:46;;;;;;;6.60;1.15;;;;;;;;;;5050222;28;20098;-63
2022/09/20 02:43:18;;;;;;;4.30;1.08;;;;;;;;;;5050894;28;20052;-64
2022/09/20 02:45:50;;;;;;;5.35;1.17;;;;;;;;;;5046120;28;20494;-63
2022/09/20 02:48:21;;;;;;;9.20;1.33;;;;;;;;;;5050072;28;20080;-63
2022/09/20 02:50:47;;;;;;;4.22;1.20;;;;;;;;;;5049628;28;20045;-64
2022/09/20 02:53:13;;;;;;;10.25;1.98;;;;;;;;;;5050732;28;20499;-64
2022/09/20 02:55:42;;;;;;;6.45;1.15;;;;;;;;;;5043166;28;20044;-64
2022/09/20 02:58:27;;;;;;;8.95;1.40;;;;;;;;;;5051024;28;20045;-63
2022/09/20 03:01:08;;;;;;;8.55;1.33;;;;;;;;;;5050532;28;20079;-64
2022/09/20 03:03:50;;;;;;;4.93;1.30;;;;;;;;;;5050178;28;20032;-64
2022/09/20 03:06:22;;;;;;;5.50;1.08;;;;;;;;;;5048825;28;20076;-64
2022/09/20 03:09:07;;;;;;;5.32;1.10;;;;;;;;;;5051589;28;20540;-63
2022/09/20 03:11:39;;;;;;;8.73;1.33;;;;;;;;;;5050048;28;20044;-63
2022/09/20 03:14:05;;;;;;;4.32;1.15;;;;;;;;;;5050577;28;20033;-63
2022/09/20 03:16:44;;;;;;;5.00;1.40;;;;;;;;;;5043511;28;20041;-64
2022/09/20 03:19:16;;;;;;;4.57;1.13;;;;;;;;;;5049859;28;20041;-63
2022/09/20 03:21:48;;;;;;;5.30;1.23;;;;;;;;;;5050184;28;20033;-64
2022/09/20 03:24:27;;;;;;;5.03;1.10;;;;;;;;;;5049521;28;20037;-63
2022/09/20 03:27:08;;;;;;;6.60;1.23;;;;;;;;;;5050571;28;20073;-63
2022/09/20 03:29:35;;;;;;;6.05;1.42;;;;;;;;;;5049933;28;20041;-63
2022/09/20 03:32:16;;;;;;;5.32;1.50;;;;;;;;;;5051652;28;20055;-64
2022/09/20 03:34:42;;;;;;;;;;;;;;;;;;5048808;28;20067;-64
2022/09/20 03:37:14;;;;;;;3.88;1.00;;;;;;;;;;5047522;28;20370;-64
2022/09/20 03:39:59;;;;;;;6.65;1.13;;;;;;;;;;5048483;28;20500;-64
2022/09/20 03:42:26;;;;;;;7.28;1.30;;;;;;;;;;5051338;28;20124;-63
2022/09/20 03:45:11;;;;;;;5.80;1.50;;;;;;;;;;5050087;28;20033;-63
2022/09/20 03:47:37;;;;;;;5.40;0.90;;;;;;;;;;5043402;28;20059;-64
2022/09/20 03:50:21;;;;;;;3.22;1.00;;;;;;;;;;5050141;28;20482;-64
2022/09/20 03:53:06;;;;;;;3.60;1.00;;;;;;;;;;5044274;28;20082;-64
2022/09/20 03:55:32;;;;;;;4.10;1.00;;;;;;;;;;5049031;28;20045;-63
2022/09/20 03:58:04;;;;;;;4.85;1.10;;;;;;;;;;5051047;28;20048;-63
2022/09/20 04:00:49;;;;;;;4.45;0.80;;;;;;;;;;5048404;28;20044;-63
2022/09/20 04:03:25;;;;;;;3.22;1.20;;;;;;;;;;5045618;28;20065;-63
2022/09/20 04:05:59;;;;;;;4.03;1.15;;;;;;;;;;5047770;28;20041;-63
2022/09/20 04:08:28;;;;;;;3.60;0.93;;;;;;;;;;5054029;28;20136;-64
2022/09/20 04:11:10;;;;;;;3.92;1.10;;;;;;;;;;5054643;28;20044;-63
2022/09/20 04:13:44;;;;;;;5.25;1.05;;;;;;;;;;5051774;28;20053;-63
2022/09/20 04:16:16;;;;;;;4.40;1.27;;;;;;;;;;5047897;28;20398;-63
2022/09/20 04:18:51;;;;;;;3.05;1.20;;;;;;;;;;5046622;28;20037;-63
2022/09/20 04:21:36;;;;;;;4.03;1.17;;;;;;;;;;5053764;28;20071;-63
2022/09/20 04:24:05;;;;;;;4.45;1.20;;;;;;;;;;5049810;28;20044;-63
2022/09/20 04:26:32;;;;;;;3.10;1.08;;;;;;;;;;5053911;28;20546;-63
2022/09/20 04:29:08;;;;;;;7.18;1.33;;;;;;;;;;5053121;28;20402;-63
2022/09/20 04:31:53;;;;;;;4.90;1.20;;;;;;;;;;5044871;28;20628;-63
2022/09/20 04:34:22;;;;;;;4.95;1.08;;;;;;;;;;5051063;28;20120;-63
2022/09/20 04:37:01;;;;;;;5.30;1.15;;;;;;;;;;5054446;28;20087;-63
2022/09/20 04:39:41;;;;;;;3.50;0.98;;;;;;;;;;5052905;28;20067;-63
2022/09/20 04:42:07;;;;;;;4.55;1.20;;;;;;;;;;5049847;28;20124;-63
2022/09/20 04:44:36;;;;;;;2.28;1.25;;;;;;;;;;5052150;28;20040;-63
2022/09/20 04:47:21;;;;;;;3.78;0.90;;;;;;;;;;5053782;28;20040;-63
2022/09/20 04:50:06;;;;;;;4.40;1.02;;;;;;;;;;5051027;28;20048;-63
2022/09/20 04:52:38;;;;;;;7.38;1.40;;;;;;;;;;5052938;28;20056;-63
2022/09/20 04:55:22;;;;;;;5.50;1.75;;;;;;;;;;5053184;28;20037;-63
2022/09/20 04:58:09;;;;;;;5.05;1.15;;;;;;;;;;5046914;28;20080;-63
2022/09/20 05:00:53;;;;;;;4.22;1.13;;;;;;;;;;5006307;28;20049;-64
2022/09/20 05:03:25;;;;;;;5.78;1.10;;;;;;;;;;5050046;28;20406;-63
2022/09/20 05:06:10;;;;;;;4.80;1.00;;;;;;;;;;5052595;28;20127;-63
2022/09/20 05:08:55;;;;;;;4.53;1.00;;;;;;;;;;5044629;28;20048;-64
2022/09/20 05:11:41;;;;;;;2.90;1.20;;;;;;;;;;5051419;28;20067;-64
2022/09/20 05:14:30;;;;;;;5.30;1.20;;;;;;;;;;5049406;28;20486;-64
2022/09/20 05:16:59;;;;;;;3.53;1.05;;;;;;;;;;5052267;28;20112;-63
2022/09/20 05:19:38;;;;;;;2.13;0.70;;;;;;;;;;5052322;28;20041;-63
2022/09/20 05:22:24;;;;;;;4.35;0.70;;;;;;;;;;5052439;28;20387;-64
2022/09/20 05:25:09;;;;;;;3.80;1.02;;;;;;;;;;5046382;28;20037;-64
2022/09/20 05:27:55;;;;;;;3.22;0.98;;;;;;;;;;5051428;28;20083;-64
2022/09/20 05:30:40;;;;;;;3.55;0.90;;;;;;;;;;5052079;28;20120;-64
2022/09/20 05:33:14;;;;;;;4.80;0.88;;;;;;;;;;5050720;28;20045;-64
2022/09/20 05:35:40;;;;;;;6.72;1.23;;;;;;;;;;5051900;28;20094;-63
2022/09/20 05:38:32;;;;;;;3.13;1.08;;;;;;;;;;5052545;28;20119;-63
2022/09/20 05:41:01;;;;;;;3.47;1.10;;;;;;;;;;5046906;28;20059;-64
2022/09/20 05:43:30;;;;;;;3.38;1.10;;;;;;;;;;5043926;28;20132;-63
2022/09/20 05:45:56;;;;;;;1.40;0.82;;;;;;;;;;5048209;28;20426;-63
2022/09/20 05:48:44;;;;;;;3.80;1.08;;;;;;;;;;5051145;28;20044;-64
2022/09/20 05:51:21;;;;;;;5.97;1.27;;;;;;;;;;5051109;28;20036;-64
2022/09/20 05:53:47;;;;;;;7.53;1.67;;;;;;;;;;5048970;28;20072;-64
2022/09/20 05:56:13;;;;;;;4.40;0.90;;;;;;;;;;5050716;28;20037;-63
2022/09/20 05:58:57;;;;;;;3.00;1.27;;;;;;;;;;5045452;28;20464;-63
2022/09/20 06:01:32;;;;;;;5.97;1.23;;;;;;;;;;5050504;28;20122;-64
2022/09/20 06:04:12;;;;;;;6.13;1.23;;;;;;;;;;5052101;28;20036;-64
2022/09/20 06:06:57;;;;;;;6.70;1.65;;;;;;;;;;5042835;28;20037;-64
2022/09/20 06:09:23;;;;;;;4.18;1.20;;;;;;;;;;5049825;28;20029;-64
2022/09/20 06:12:02;;;;;;;6.60;1.40;;;;;;;;;;5047988;28;20056;-63
2022/09/20 06:14:47;;;;;;;5.57;1.50;;;;;;;;;;5049579;28;20049;-64
2022/09/20 06:17:14;;;;;;;5.63;1.50;;;;;;;;;;5050905;28;20074;-63
2022/09/20 06:19:40;;;;;;;5.75;1.50;;;;;;;;;;5033414;28;20119;-64
2022/09/20 06:22:12;;;;;;;4.50;1.55;;;;;;;;;;5101127;22;20124;-65
2022/09/20 06:24:43;;;;;;;3.33;1.25;;;;;;;;;;5064618;28;20547;-65
2022/09/20 06:27:12;;;;;;;6.30;1.47;;;;;;;;;;5067690;28;20144;-66
2022/09/20 06:29:42;;;;;;;7.35;1.90;;;;;;;;;;5070677;28;20040;-65
2022/09/20 06:32:08;;;;;;;4.78;1.40;;;;;;;;;;5067915;28;20045;-63
2022/09/20 06:34:34;;;;;;;7.82;1.80;;;;;;;;;;5069824;28;20051;-64
2022/09/20 06:42:43;;;;;;;4.82;1.60;;;;;;;;;;5068533;28;20387;-65
2022/09/20 06:45:09;;;;;;;3.10;1.30;;;;;;;;;;5067641;28;20103;-65
2022/09/20 06:47:35;;;;;;;6.07;1.63;;;;;;;;;;5066410;28;20048;-65
2022/09/20 06:50:02;;;;;;;6.97;1.50;;;;;;;;;;5067796;28;20084;-65
2022/09/20 06:52:28;;;;;;;4.18;1.33;;;;;;;;;;5062246;28;20040;-64
2022/09/20 06:54:55;;;;;;;7.43;1.90;;;;;;;;;;5067022;28;20094;-65
2022/09/20 06:57:39;;;;;;;4.13;1.63;;;;;;;;;;5058585;28;20072;-65
2022/09/20 07:00:09;;;;;;;5.57;1.63;;;;;;;;;;5069628;28;20094;-65
2022/09/20 07:02:35;;;;;;;6.45;1.38;;;;;;;;;;5043564;28;20045;-65
2022/09/20 07:05:01;;;;;;;4.50;1.40;;;;;;;;;;5040154;28;20116;-65
2022/09/20 07:07:27;;;;;;;3.30;1.30;;;;;;;;;;5039562;28;20596;-65
2022/09/20 07:09:53;;;;;;;5.82;1.42;;;;;;;;;;5059916;28;20040;-65
2022/09/20 07:12:20;;;;;;;5.05;2.00;;;;;;;;;;5066842;28;20035;-65
2022/09/20 07:14:46;;;;;;;5.95;1.63;;;;;;;;;;5063241;28;20086;-65
2022/09/20 07:17:13;;;;;;;4.97;1.42;;;;;;;;;;5069663;28;20098;-65
2022/09/20 07:19:39;;;;;;;4.22;1.40;;;;;;;;;;5070152;28;20043;-65
2022/09/20 07:22:05;;;;;;;7.18;1.77;;;;;;;;;;5066684;28;20119;-65
2022/09/20 07:24:31;;;;;;;5.40;1.55;;;;;;;;;;5070026;28;20173;-65
2022/09/20 07:27:01;;;;;;;4.40;1.65;;;;;;;;;;5066199;28;20037;-65
2022/09/20 07:29:27;;;;;;;8.45;1.70;;;;;;;;;;5068900;28;20036;-66
2022/09/20 07:31:53;;;;;;;3.80;1.48;;;;;;;;;;5066651;28;20036;-65
2022/09/20 07:34:19;;;;;;;5.72;1.73;;;;;;;;;;5068655;28;20070;-66
2022/09/20 07:36:46;;;;;;;9.20;2.17;;;;;;;;;;5065299;28;20063;-65
2022/09/20 07:39:12;;;;;;;5.55;1.67;;;;;;;;;;5068404;28;20029;-66
2022/09/20 07:41:38;;;;;;;8.95;1.70;;;;;;;;;;5069825;28;20533;-66
2022/09/20 07:44:20;;;;;;;4.38;1.80;;;;;;;;;;5069542;28;20399;-66
2022/09/20 07:46:53;;;;;;;6.40;1.70;;;;;;;;;;5067453;28;20041;-66
2022/09/20 07:49:20;;;;;;;5.97;1.60;;;;;;;;;;5066402;28;20033;-65
2022/09/20 07:51:46;;;;;;;5.40;1.83;;;;;;;;;;5066767;28;20037;-66
2022/09/20 07:54:12;;;;;;;6.88;1.35;;;;;;;;;;5068604;28;20036;-66
2022/09/20 07:56:38;;;;;;;4.70;1.33;;;;;;;;;;5064388;28;20055;-65
2022/09/20 07:59:04;;;;;;;8.10;1.55;;;;;;;;;;5067355;28;20490;-65
2022/09/20 08:01:30;;;;;;;4.75;1.63;;;;;;;;;;5060447;28;20045;-65
2022/09/20 08:03:56;;;;;;;6.82;1.50;;;;;;;;;;5065567;28;20064;-66
2022/09/20 08:06:23;;;;;;;4.68;1.20;;;;;;;;;;5066775;28;20121;-65
2022/09/20 08:08:50;;;;;;;6.10;1.23;;;;;;;;;;5065348;28;20041;-66
2022/09/20 08:11:17;;;;;;;5.25;1.30;;;;;;;;;;5064752;28;20385;-65
2022/09/20 08:13:50;;;;;;;4.60;1.20;;;;;;;;;;5066254;28;20040;-65
2022/09/20 08:16:17;;;;;;;4.32;1.10;;;;;;;;;;5065173;28;20043;-65
2022/09/20 08:18:57;;;;;;;5.55;1.15;;;;;;;;;;5066366;28;20037;-66
2022/09/20 08:21:24;;;;;;;7.15;1.67;;;;;;;;;;5065810;28;20514;-66
2022/09/20 08:23:50;;;;;;;3.97;1.38;;;;;;;;;;5064901;28;20048;-65
2022/09/20 08:26:18;;;;;;;5.28;1.40;;;;;;;;;;5062627;28;20044;-66
2022/09/20 08:28:45;;;;;;;4.88;1.20;;;;;;;;;;5066689;28;20036;-66
2022/09/20 08:31:12;;;;;;;4.28;0.88;;;;;;;;;;5065735;28;20516;-66
2022/09/20 08:33:39;;;;;;;5.57;1.27;;;;;;;;;;5069728;28;20559;-66
2022/09/20 08:36:05;;;;;;;3.45;1.00;;;;;;;;;;5064493;28;20075;-65
2022/09/20 08:38:32;;;;;;;4.88;1.10;;;;;;;;;;5059515;28;20049;-66
2022/09/20 08:41:04;;;;;;;4.10;1.17;;;;;;;;;;5068222;28;20398;-66
2022/09/20 08:43:37;;;;;;;3.83;1.30;;;;;;;;;;5068867;28;20040;-66
2022/09/20 08:46:03;;;;;;;6.07;1.00;;;;;;;;;;5062071;28;20087;-65
2022/09/20 08:48:32;;;;;;;6.35;1.20;;;;;;;;;;5070420;28;20044;-66
2022/09/20 08:51:02;;;;;;;4.63;1.08;;;;;;;;;;5074206;28;20055;-66
2022/09/20 08:53:29;;;;;;;5.10;1.40;;;;;;;;;;5072868;28;20502;-66
2022/09/20 08:55:59;;;;;;;8.15;1.40;;;;;;;;;;5074003;28;20052;-66
2022/09/20 08:58:28;;;;;;;3.80;0.98;;;;;;;;;;5070379;28;20119;-66
2022/09/20 09:00:55;;;;;;;3.13;0.90;;;;;;;;;;5068806;28;20033;-66
2022/09/20 09:03:21;;;;;;;2.80;0.70;;;;;;;;;;5072972;28;20051;-66
2022/09/20 09:05:54;;;;;;;5.25;1.10;;;;;;;;;;5073854;28;20457;-66
2022/09/20 09:08:31;;;;;;;4.80;1.13;;;;;;;;;;5072475;28;20558;-66
2022/09/20 09:10:58;;;;;;;2.75;1.02;;;;;;;;;;5066038;28;20068;-66
2022/09/20 09:13:39;;;;;;;5.50;0.98;;;;;;;;;;5069037;28;20075;-66
2022/09/20 09:16:11;;;;;;;3.67;0.93;;;;;;;;;;5071365;28;20123;-66
2022/09/20 09:18:39;;;;;;;3.90;1.50;;;;;;;;;;5072489;28;20080;-67
2022/09/20 09:21:06;;;;;;;3.28;0.85;;;;;;;;;;5072267;28;20070;-66
2022/09/20 09:23:44;;;;;;;4.63;0.60;;;;;;;;;;5063395;28;20052;-67
2022/09/20 09:26:22;;;;;;;3.65;0.80;;;;;;;;;;5067739;28;20048;-67
2022/09/20 09:29:07;;;;;;;4.00;0.73;;;;;;;;;;5073847;28;20079;-67
2022/09/20 09:31:33;;;;;;;5.55;1.00;;;;;;;;;;5068692;28;20533;-66
2022/09/20 09:33:59;;;;;;;3.10;0.88;;;;;;;;;;5071895;28;20402;-67
2022/09/20 09:36:25;;;;;;;4.18;0.75;;;;;;;;;;5069512;28;20040;-67
2022/09/20 09:39:11;;;;;;;3.88;0.82;;;;;;;;;;5067240;28;20044;-67
2022/09/20 09:41:37;;;;;;;6.00;1.25;;;;;;;;;;5053327;28;20045;-67
2022/09/20 09:44:23;;;;;;;4.03;0.80;;;;;;;;;;5066964;28;20501;-67
2022/09/20 09:46:49;;;;;;;3.17;0.60;;;;;;;;;;5071962;28;20079;-67
2022/09/20 09:49:19;;;;;;;4.15;0.70;;;;;;;;;;5072485;28;20085;-67
2022/09/20 09:51:54;;;;;;;8.05;1.08;;;;;;;;;;5058470;28;20041;-67
2022/09/20 09:54:22;;;;;;;7.82;0.85;;;;;;;;;;5071670;28;20055;-67
2022/09/20 09:56:56;;;;;;;3.45;0.73;;;;;;;;;;5071932;28;20037;-67
2022/09/20 09:59:34;;;;;;;5.03;0.80;;;;;;;;;;5072569;28;20041;-67
2022/09/20 10:02:11;;;;;;;1.90;0.50;;;;;;;;;;5072075;28;20494;-67
2022/09/20 10:04:56;;;;;;;2.90;0.77;;;;;;;;;;5072915;28;20040;-67
2022/09/20 10:07:41;;;;;;;2.40;0.60;;;;;;;;;;5072701;28;20041;-67
2022/09/20 10:10:17;;;;;;;6.40;0.80;;;;;;;;;;5060931;28;20568;-67
2022/09/20 10:13:02;;;;;;;3.30;0.80;;;;;;;;;;5066133;28;20102;-67
2022/09/20 10:15:41;;;;;;;3.75;0.60;;;;;;;;;;5070577;28;20040;-66
2022/09/20 10:18:17;;;;;;;3.13;0.90;;;;;;;;;;5070280;28;20128;-66
2022/09/20 10:20:52;;;;;;;6.70;1.05;;;;;;;;;;5068748;28;20047;-66
2022/09/20 10:23:40;;;;;;;3.08;0.57;;;;;;;;;;5070669;28;20603;-66
2022/09/20 10:26:12;;;;;;;5.03;0.98;;;;;;;;;;5064042;28;20048;-66
2022/09/20 10:29:05;;;;;;;7.22;0.80;;;;;;;;;;5071871;28;20040;-66
2022/09/20 10:31:32;;;;;;;4.13;0.82;;;;;;;;;;5070093;28;20048;-66
2022/09/20 10:34:16;;;;;;;7.40;0.88;;;;;;;;;;5069717;28;20093;-66
2022/09/20 10:36:53;;;;;;;5.07;0.98;;;;;;;;;;5070714;28;20391;-66
2022/09/20 10:39:26;;;;;;;3.22;0.90;;;;;;;;;;5072124;28;20106;-67
2022/09/20 10:44:58;;;;;;;6.30;0.80;;;;;;;;;;5066464;28;20040;-66
2022/09/20 10:47:30;;;;;;;3.75;0.93;;;;;;;;;;5069214;28;20041;-67
2022/09/20 10:50:10;;;;;;;3.40;0.77;;;;;;;;;;5071624;28;20052;-67
2022/09/20 10:52:36;;;;;;;3.97;0.80;;;;;;;;;;5070473;28;20044;-66
2022/09/20 10:55:08;;;;;;;2.30;0.73;;;;;;;;;;5071889;28;20041;-67
2022/09/20 10:57:44;;;;;;;3.35;0.73;;;;;;;;;;5071534;28;20083;-67
2022/09/20 11:00:19;;;;;;;5.45;0.60;;;;;;;;;;5069770;28;20076;-67
2022/09/20 11:02:45;;;;;;;2.70;0.75;;;;;;;;;;5064213;28;20058;-67
2022/09/20 11:05:17;;;;;;;5.00;1.05;;;;;;;;;;5070925;28;20037;-67
2022/09/20 11:07:51;;;;;;;3.88;0.80;;;;;;;;;;5065989;28;20044;-67
2022/09/20 11:10:27;;;;;;;4.05;0.60;;;;;;;;;;5065760;28;20075;-66
2022/09/20 11:13:01;;;;;;;2.88;0.60;;;;;;;;;;5066923;28;20115;-66
2022/09/20 11:15:32;;;;;;;3.83;0.70;;;;;;;;;;5068373;28;20044;-67
2022/09/20 11:17:58;;;;;;;3.50;1.10;;;;;;;;;;5071324;28;20398;-67
2022/09/20 11:20:30;;;;;;;1.48;0.50;;;;;;;;;;5067638;28;20558;-66
2022/09/20 11:22:59;;;;;;;5.15;0.77;;;;;;;;;;5065855;28;20460;-67
2022/09/20 11:25:32;;;;;;;3.60;0.70;;;;;;;;;;5069025;28;20074;-67
2022/09/20 11:28:08;;;;;;;2.83;0.50;;;;;;;;;;5068428;28;20042;-67
2022/09/20 11:30:36;;;;;;;3.00;0.52;;;;;;;;;;5062848;28;20049;-67
2022/09/20 11:33:23;;;;;;;4.47;0.70;;;;;;;;;;5067743;28;20044;-67
2022/09/20 11:35:54;;;;;;;3.08;0.90;;;;;;;;;;5030115;28;20052;-67
2022/09/20 11:38:22;;;;;;;;;;;;;;;;;;5069142;28;20045;-67
2022/09/20 11:41:01;;;;;;;4.45;0.80;;;;;;;;;;5063497;28;19928;-67
2022/09/20 11:43:30;;;;;;;2.58;0.60;;;;;;;;;;5064415;28;20119;-67
2022/09/20 11:46:00;;;;;;;2.78;0.55;;;;;;;;;;5071147;28;20513;-67
2022/09/20 11:48:32;;;;;;;5.93;0.80;;;;;;;;;;5070927;28;20037;-67
2022/09/20 11:51:19;;;;;;;2.83;0.60;;;;;;;;;;5071467;28;20127;-67
2022/09/20 11:53:51;;;;;;;3.30;0.60;;;;;;;;;;5068973;28;20120;-67
2022/09/20 11:56:25;;;;;;;2.70;0.70;;;;;;;;;;5070715;28;20045;-67
2022/09/20 11:58:52;;;;;;;2.10;0.70;;;;;;;;;;5070932;28;20370;-67
2022/09/20 12:01:25;;;;;;;2.67;0.90;;;;;;;;;;5070418;28;20090;-67
2022/09/20 12:03:53;;;;;;;3.70;0.60;;;;;;;;;;5067906;28;20078;-67
2022/09/20 12:06:33;;;;;;;5.40;0.60;;;;;;;;;;5068242;28;20079;-67
2022/09/20 12:09:01;;;;;;;5.93;0.90;;;;;;;;;;5059992;28;20482;-67
2022/09/20 12:11:29;;;;;;;4.63;1.08;;;;;;;;;;5069666;28;20672;-67
2022/09/20 12:14:00;;;;;;;7.85;1.30;;;;;;;;;;5069906;28;20507;-67
2022/09/20 12:16:43;;;;;;;4.55;0.80;;;;;;;;;;5069410;28;20044;-67
2022/09/20 12:19:10;;;;;;;3.85;0.60;;;;;;;;;;5072207;28;20108;-67
2022/09/20 12:21:55;;;;;;;5.72;0.98;;;;;;;;;;5090463;22;20047;-63
2022/09/20 12:24:21;;;;;;;4.55;0.98;;;;;;;;;;5078345;28;20122;-63
2022/09/20 12:26:47;;;;;;;5.70;1.13;;;;;;;;;;5076246;28;20211;-64
2022/09/20 12:29:25;;;;;;;3.58;1.00;;;;;;;;;;5098744;28;20044;-63
2022/09/20 12:32:00;;;;;;;3.10;0.85;;;;;;;;;;5097268;28;20105;-63
2022/09/20 12:34:26;;;;;;;4.38;0.80;;;;;;;;;;5092514;28;20040;-63
2022/09/20 12:36:55;;;;;;;2.80;0.70;;;;;;;;;;5086021;28;20135;-64
2022/09/20 12:39:24;;;;;;;4.75;0.60;;;;;;;;;;5092548;28;20078;-63
2022/09/20 12:41:52;;;;;;;2.13;0.82;;;;;;;;;;5092548;28;20040;-63
2022/09/20 12:44:21;;;;;;;5.75;0.98;;;;;;;;;;5094396;28;20036;-64
2022/09/20 12:46:55;;;;;;;2.72;0.80;;;;;;;;;;5091817;28;20044;-64
2022/09/20 12:55:27;;;;;;;4.40;0.70;;;;;;;;;;5074802;28;20036;-64
2022/09/20 12:57:57;;;;;;;5.20;0.77;;;;;;;;;;5088158;28;20070;-64
2022/09/20 13:00:35;;;;;;;5.50;1.00;;;;;;;;;;5088584;28;20502;-64
2022/09/20 13:03:09;;;;;;;3.13;0.60;;;;;;;;;;5080072;28;20044;-64
2022/09/20 13:05:37;;;;;;;6.45;1.10;;;;;;;;;;5085655;28;20089;-64
2022/09/20 13:08:09;;;;;;;3.35;0.80;;;;;;;;;;5086551;28;20143;-65
2022/09/20 13:10:37;;;;;;;5.78;0.88;;;;;;;;;;5076427;28;20044;-64
2022/09/20 13:13:11;;;;;;;3.33;0.82;;;;;;;;;;5084456;28;20403;-65
2022/09/20 13:15:39;;;;;;;3.88;0.77;;;;;;;;;;5089099;28;20036;-65
2022/09/20 13:18:06;;;;;;;4.65;0.98;;;;;;;;;;5092716;28;20052;-64
2022/09/20 13:20:33;;;;;;;3.97;1.08;;;;;;;;;;5092648;28;20115;-64
2022/09/20 13:23:01;;;;;;;2.95;1.15;;;;;;;;;;5086519;28;20040;-64
2022/09/20 13:25:27;;;;;;;5.55;0.90;;;;;;;;;;5092138;28;20044;-65
2022/09/20 13:28:15;;;;;;;4.80;1.00;;;;;;;;;;5091694;28;20040;-64
2022/09/20 13:30:41;;;;;;;5.00;0.80;;;;;;;;;;5090564;28;20044;-64
2022/09/20 13:33:16;;;;;;;4.53;0.80;;;;;;;;;;5094036;28;20221;-64
2022/09/20 13:35:47;;;;;;;3.20;0.68;;;;;;;;;;5093766;28;20104;-64
2022/09/20 13:38:14;;;;;;;7.68;1.00;;;;;;;;;;5093454;28;20048;-64
2022/09/20 13:40:41;;;;;;;4.07;0.82;;;;;;;;;;5092161;28;20036;-64
2022/09/20 13:43:27;;;;;;;5.60;0.80;;;;;;;;;;5093674;28;20032;-64
2022/09/20 13:45:57;;;;;;;6.68;1.17;;;;;;;;;;5091990;28;20097;-64
2022/09/20 13:48:27;;;;;;;4.10;1.10;;;;;;;;;;5093478;28;20040;-64
2022/09/20 13:50:53;;;;;;;5.82;1.13;;;;;;;;;;5093412;28;20100;-65
2022/09/20 13:53:21;;;;;;;3.65;0.90;;;;;;;;;;5093344;28;20059;-64
2022/09/20 13:55:47;;;;;;;3.55;0.80;;;;;;;;;;5091984;28;20055;-64
2022/09/20 13:58:22;;;;;;;3.92;0.85;;;;;;;;;;5090738;28;20088;-64
2022/09/20 14:00:53;;;;;;;4.13;1.13;;;;;;;;;;5092699;28;20032;-64
2022/09/20 14:03:19;;;;;;;;;;;;;;;;;;5094130;28;20115;-64
2022/09/20 14:05:47;;;;;;;2.95;0.80;;;;;;;;;;5092107;28;20468;-64
2022/09/20 14:08:17;;;;;;;1.63;0.50;;;;;;;;;;5092084;28;20497;-63
2022/09/20 14:10:44;;;;;;;2.85;0.80;;;;;;;;;;5092268;28;20438;-64
2022/09/20 14:13:16;;;;;;;4.65;0.70;;;;;;;;;;5090016;28;20032;-64
2022/09/20 14:15:43;;;;;;;5.22;0.70;;;;;;;;;;5090233;28;20095;-64
2022/09/20 14:18:20;;;;;;;2.80;0.73;;;;;;;;;;5087945;28;20415;-64
2022/09/20 14:20:46;;;;;;;4.55;1.00;;;;;;;;;;5092240;28;20040;-64
2022/09/20 14:23:23;;;;;;;4.07;0.80;;;;;;;;;;5092118;28;20043;-64
2022/09/20 14:26:09;;;;;;;4.20;0.70;;;;;;;;;;5087975;28;20040;-64
2022/09/20 14:28:35;;;;;;;3.17;0.60;;;;;;;;;;5088527;28;20054;-64
2022/09/20 14:31:06;;;;;;;4.15;0.70;;;;;;;;;;5089954;28;20118;-65
2022/09/20 14:33:32;;;;;;;4.18;0.63;;;;;;;;;;5090150;28;20123;-64
2022/09/20 14:35:58;;;;;;;5.45;0.80;;;;;;;;;;5087992;28;20052;-64
2022/09/20 14:38:25;;;;;;;3.15;0.65;;;;;;;;;;5083869;28;20123;-64
2022/09/20 14:40:52;;;;;;;3.92;0.80;;;;;;;;;;5088229;28;20040;-64
2022/09/20 14:43:24;;;;;;;3.08;0.50;;;;;;;;;;5088408;28;20068;-64
2022/09/20 14:46:00;;;;;;;2.80;1.15;;;;;;;;;;5083952;28;20092;-64
2022/09/20 14:48:26;;;;;;;5.05;0.63;;;;;;;;;;5082982;28;20490;-64
2022/09/20 14:51:09;;;;;;;2.67;0.55;;;;;;;;;;5088991;28;20043;-64
2022/09/20 14:53:37;;;;;;;3.25;0.68;;;;;;;;;;5091188;28;20131;-64
2022/09/20 14:56:06;;;;;;;3.85;0.63;;;;;;;;;;5087603;28;20045;-65
2022/09/20 14:58:33;;;;;;;3.97;0.63;;;;;;;;;;5086698;28;20047;-65
2022/09/20 15:01:03;;;;;;;5.13;0.70;;;;;;;;;;5083713;28;20043;-64
2022/09/20 15:03:38;;;;;;;4.68;0.60;;;;;;;;;;5086529;28;20036;-64
2022/09/20 15:06:05;;;;;;;5.50;0.70;;;;;;;;;;5084239;28;20080;-65
2022/09/20 15:08:34;;;;;;;5.15;0.70;;;;;;;;;;5083837;28;20458;-64
2022/09/20 15:11:00;;;;;;;4.07;0.90;;;;;;;;;;5088324;28;20501;-65
2022/09/20 15:13:26;;;;;;;2.08;0.47;;;;;;;;;;5089173;28;20032;-64
2022/09/20 15:15:52;;;;;;;2.28;0.52;;;;;;;;;;5086267;28;20088;-64
2022/09/20 15:18:24;;;;;;;4.15;0.60;;;;;;;;;;5088597;28;20489;-64
2022/09/20 15:20:50;;;;;;;3.92;0.60;;;;;;;;;;5052144;28;1067458;-64
2022/09/20 15:23:16;;;;;;;4.40;0.50;;;;;;;;;;5088645;28;20047;-64
2022/09/20 15:25:42;;;;;;;3.00;0.60;;;;;;;;;;5089113;28;20040;-64
2022/09/20 15:28:14;;;;;;;3.63;0.70;;;;;;;;;;5091705;28;20039;-64
2022/09/20 15:30:40;;;;;;;1.38;0.50;;;;;;;;;;5091275;28;20044;-64